Time;durP1;ratioP1;P1;durP2;ratioP2;P2;SDS_P1;SDS_P2;PMS_P1;PMS_P2;Temp;Humidity;BMP_temperature;BMP_pressure;BME280_temperature;BME280_humidity;BME280_pressure;Samples;Min_cycle;Max_cycle;Signal;HPM_P1;HPM_P2
2021/09/14 00:00:37;;;;;;;;;6.00;6.00;;;;;23.92;42.60;100667.81;5000180;28;46024;-57
2021/09/14 00:03:02;;;;;;;;;7.50;7.50;;;;;23.91;42.71;100667.91;5000292;28;45224;-58
2021/09/14 00:05:27;;;;;;;;;9.75;6.75;;;;;23.85;42.54;100661.16;5000519;28;45414;-57
2021/09/14 00:07:53;;;;;;;;;8.50;6.75;;;;;23.85;42.72;100662.00;5000344;28;45348;-58
2021/09/14 00:10:18;;;;;;;;;5.50;5.50;;;;;23.84;42.77;100657.63;5000238;28;46210;-58
2021/09/14 00:12:44;;;;;;;;;9.25;6.50;;;;;23.83;42.67;100655.03;5000241;28;45350;-57
2021/09/14 00:15:10;;;;;;;;;6.50;6.00;;;;;23.81;42.74;100655.16;5000275;28;45309;-58
2021/09/14 00:17:35;;;;;;;;;7.50;7.50;;;;;23.79;42.76;100657.09;5000153;28;45309;-57
2021/09/14 00:20:01;;;;;;;;;10.00;8.50;;;;;23.77;42.67;100648.31;4999905;28;45463;-57
2021/09/14 00:22:26;;;;;;;;;8.00;8.00;;;;;23.76;42.88;100646.59;5010365;28;45945;-58
2021/09/14 00:24:52;;;;;;;;;7.00;6.25;;;;;23.74;42.88;100656.56;5020100;28;45311;-58
2021/09/14 00:27:17;;;;;;;;;8.00;7.00;;;;;23.70;42.82;100647.88;5019888;28;45230;-58
2021/09/14 00:29:42;;;;;;;;;7.00;6.25;;;;;23.72;43.22;100649.59;5019628;28;45797;-58
2021/09/14 00:32:08;;;;;;;;;7.00;7.00;;;;;23.64;43.00;100642.09;5019635;28;45311;-58
2021/09/14 00:34:33;;;;;;;;;8.75;8.00;;;;;23.64;43.04;100648.31;5007755;28;45353;-58
2021/09/14 00:36:58;;;;;;;;;6.50;6.50;;;;;23.64;43.03;100650.97;4998730;28;45480;-58
2021/09/14 00:39:24;;;;;;;;;8.00;8.00;;;;;23.63;43.13;100649.25;4999889;28;46483;-58
2021/09/14 00:41:49;;;;;;;;;6.00;6.00;;;;;23.62;43.03;100652.94;4999729;28;45225;-58
2021/09/14 00:44:14;;;;;;;;;6.75;5.75;;;;;23.54;43.56;100648.09;4999895;28;45223;-58
2021/09/14 00:46:40;;;;;;;;;6.25;6.00;;;;;23.58;43.05;100647.88;5011953;28;45397;-58
2021/09/14 00:49:05;;;;;;;;;9.75;8.00;;;;;23.56;43.17;100650.69;5019707;28;45340;-58
2021/09/14 00:51:31;;;;;;;;;8.75;8.75;;;;;23.55;43.20;100651.66;5019416;28;45217;-58
2021/09/14 00:53:57;;;;;;;;;7.00;7.00;;;;;23.54;43.07;100655.28;5019810;28;45225;-58
2021/09/14 00:56:23;;;;;;;;;8.25;6.25;;;;;23.49;43.41;100654.75;5019060;28;45585;-58
2021/09/14 00:58:48;;;;;;;;;10.00;10.00;;;;;23.46;43.23;100650.47;5021267;28;45227;-58
2021/09/14 01:01:13;;;;;;;;;9.50;8.25;;;;;23.47;43.30;100651.31;5022716;28;45176;-58
2021/09/14 01:03:39;;;;;;;;;7.00;7.00;;;;;23.45;43.11;100646.06;5023310;28;45635;-58
2021/09/14 01:06:05;;;;;;;;;8.50;7.75;;;;;23.44;43.40;100644.34;5022838;28;45337;-57
2021/09/14 01:08:31;;;;;;;;;7.50;7.25;;;;;23.41;43.57;100649.06;5022758;28;45396;-58
2021/09/14 01:10:57;;;;;;;;;8.75;8.75;;;;;23.42;43.77;100650.78;5022806;28;45282;-58
2021/09/14 01:13:23;;;;;;;;;8.00;8.00;;;;;23.39;43.60;100654.53;5023018;28;45349;-58
2021/09/14 01:15:48;;;;;;;;;7.00;7.00;;;;;23.39;43.34;100659.06;5022355;28;45444;-58
2021/09/14 01:18:13;;;;;;;;;8.00;8.00;;;;;23.39;43.65;100659.06;5022766;28;46104;-58
2021/09/14 01:20:39;;;;;;;;;6.75;5.50;;;;;23.37;43.63;100664.53;5022664;28;45249;-58
2021/09/14 01:23:04;;;;;;;;;7.50;7.50;;;;;23.37;43.77;100661.84;5022707;28;45333;-58
2021/09/14 01:25:30;;;;;;;;;7.50;7.00;;;;;23.37;43.53;100651.13;5022644;28;45225;-58
2021/09/14 01:28:04;;;;;;;;;7.25;7.25;;;;;23.34;43.59;100646.81;5022246;28;46222;-58
2021/09/14 01:30:31;;;;;;;;;9.00;8.00;;;;;23.33;43.93;100645.09;5022187;28;45234;-58
2021/09/14 01:32:56;;;;;;;;;9.50;8.25;;;;;23.32;43.77;100650.56;5022621;28;45332;-58
2021/09/14 01:35:24;;;;;;;;;10.00;7.25;;;;;23.33;43.83;100663.88;5017188;28;45455;-58
2021/09/14 01:37:50;;;;;;;;;9.50;7.25;;;;;23.32;44.04;100667.53;5022423;28;45423;-58
2021/09/14 01:40:16;;;;;;;;;8.50;7.50;;;;;23.32;43.88;100672.00;5022108;28;45384;-58
2021/09/14 01:42:42;;;;;;;;;10.00;9.00;;;;;23.32;44.02;100680.91;5021063;28;45313;-58
2021/09/14 01:45:09;;;;;;;;;7.25;7.00;;;;;23.32;44.09;100694.31;5021902;28;45607;-58
2021/09/14 01:47:35;;;;;;;;;8.75;8.75;;;;;23.32;43.84;100710.41;5014429;28;46234;-58
2021/09/14 01:50:05;;;;;;;;;7.50;7.50;;;;;23.30;44.21;100717.69;5002095;28;45294;-58
2021/09/14 01:52:32;;;;;;;;;8.50;7.50;;;;;23.28;44.07;100722.31;5001283;28;45334;-58
2021/09/14 01:55:03;;;;;;;;;8.00;7.25;;;;;23.23;43.86;100727.09;5002057;28;45403;-58
2021/09/14 01:57:33;;;;;;;;;9.25;7.50;;;;;23.25;44.51;100745.78;5001962;28;47364;-58
2021/09/14 02:00:00;;;;;;;;;8.25;8.25;;;;;23.24;44.27;100747.59;5001804;28;45317;-58
2021/09/14 02:05:08;;;;;;;;;10.00;8.00;;;;;23.22;44.35;100749.53;5001991;28;45271;-58
2021/09/14 02:07:43;;;;;;;;;9.00;8.75;;;;;23.20;44.46;100743.41;5002087;28;46290;-58
2021/09/14 02:24:26;;;;;;;;;11.75;10.00;;;;;23.20;44.37;100728.16;5001977;28;45320;-58
2021/09/14 02:58:56;;;;;;;;;11.50;10.25;;;;;23.08;45.23;100642.34;5020891;28;45336;-58
2021/09/14 03:01:22;;;;;;;;;10.50;10.00;;;;;23.04;45.73;100631.88;5020727;28;45490;-58
2021/09/14 03:03:49;;;;;;;;;10.25;10.25;;;;;23.01;45.68;100617.81;5021105;28;45297;-58
2021/09/14 03:06:15;;;;;;;;;13.25;11.25;;;;;23.00;45.85;100606.22;5020974;28;45266;-57
2021/09/14 03:08:42;;;;;;;;;10.50;10.50;;;;;22.98;45.79;100609.97;5021031;28;45467;-59
2021/09/14 03:11:10;;;;;;;;;10.75;9.00;;;;;22.95;45.69;100620.91;5020799;28;46272;-58
2021/09/14 03:13:37;;;;;;;;;12.50;11.25;;;;;22.94;45.63;100619.19;5020824;28;45424;-58
2021/09/14 03:16:04;;;;;;;;;11.00;9.75;;;;;22.91;46.14;100620.25;5020602;28;45254;-58
2021/09/14 03:18:29;;;;;;;;;9.00;8.00;;;;;22.87;45.77;100602.69;5020833;28;45249;-58
2021/09/14 03:20:55;;;;;;;;;11.75;9.50;;;;;22.90;46.06;100613.19;5020307;28;46249;-58
2021/09/14 03:23:20;;;;;;;;;37.50;32.25;;;;;22.87;45.94;100616.94;5020776;28;45321;-57
2021/09/14 03:25:45;;;;;;;;;13.25;12.00;;;;;22.83;46.15;100599.34;5020860;28;45350;-58
2021/09/14 03:28:11;;;;;;;;;9.00;9.00;;;;;22.83;46.30;100595.81;5020646;28;45586;-58
2021/09/14 03:30:37;;;;;;;;;38.75;31.75;;;;;22.82;46.25;100605.66;5020099;28;45888;-58
2021/09/14 03:33:03;;;;;;;;;268.67;255.33;;;;;22.82;46.50;100600.31;5020643;28;45250;-58
2021/09/14 03:35:29;;;;;;;;;17.25;16.00;;;;;22.80;46.40;100596.03;5015784;28;45229;-58
2021/09/14 03:37:54;;;;;;;;;11.50;9.75;;;;;22.79;46.68;100597.84;5020409;28;45472;-58
2021/09/14 03:40:20;;;;;;;;;12.25;10.00;;;;;22.77;46.39;100598.94;5020425;28;46044;-58
2021/09/14 03:42:45;;;;;;;;;9.25;9.25;;;;;22.77;46.46;100597.09;5020346;28;45364;-58
2021/09/14 03:45:10;;;;;;;;;11.00;11.00;;;;;22.79;46.83;100586.25;5019350;28;45344;-58
2021/09/14 03:47:36;;;;;;;;;11.00;11.00;;;;;22.78;46.44;100571.16;5000761;28;45359;-58
2021/09/14 03:50:02;;;;;;;;;11.00;10.00;;;;;22.76;46.67;100571.25;5000364;28;47034;-58
2021/09/14 03:52:28;;;;;;;;;12.00;9.75;;;;;22.75;46.46;100564.19;4999290;28;45419;-58
2021/09/14 03:54:53;;;;;;;;;10.75;9.75;;;;;22.75;46.62;100552.63;5000508;28;45242;-58
2021/09/14 03:57:18;;;;;;;;;10.75;10.00;;;;;22.74;46.76;100567.81;5000037;28;45420;-58
2021/09/14 03:59:44;;;;;;;;;12.00;11.00;;;;;22.73;46.99;100572.34;5009572;28;46922;-58
2021/09/14 04:02:30;;;;;;;;;11.25;11.25;;;;;22.72;46.60;100572.44;5020432;28;45406;-58
2021/09/14 04:07:24;;;;;;;;;8.25;7.75;;;;;22.69;46.82;100567.28;5020245;28;45210;-59
2021/09/14 04:09:50;;;;;;;;;10.25;9.75;;;;;22.69;46.79;100570.84;5019770;28;46198;-59
2021/09/14 04:12:16;;;;;;;;;13.50;12.00;;;;;22.66;47.13;100571.03;5019947;28;45340;-58
2021/09/14 04:14:41;;;;;;;;;13.25;13.25;;;;;22.70;47.28;100571.69;5019754;28;45305;-58
2021/09/14 04:17:06;;;;;;;;;7.25;7.25;;;;;22.66;47.46;100573.72;5020052;28;45438;-58
2021/09/14 04:19:32;;;;;;;;;11.75;11.25;;;;;22.62;47.39;100572.22;5019734;28;45749;-60
2021/09/14 04:21:57;;;;;;;;;8.50;8.50;;;;;22.63;47.27;100573.06;5019978;28;45261;-58
2021/09/14 04:24:22;;;;;;;;;9.25;9.25;;;;;22.60;47.22;100583.97;5019866;28;45453;-58
2021/09/14 04:26:48;;;;;;;;;13.25;11.25;;;;;22.52;47.63;100582.66;5020058;28;45280;-58
2021/09/14 04:29:14;;;;;;;;;10.25;9.00;;;;;22.58;47.41;100586.78;5018096;28;47144;-59
2021/09/14 04:31:39;;;;;;;;;11.00;10.25;;;;;22.55;47.73;100579.81;5019797;28;45233;-59
2021/09/14 04:34:05;;;;;;;;;11.50;10.75;;;;;22.54;47.92;100563.81;5017183;28;45214;-58
2021/09/14 04:36:30;;;;;;;;;11.50;10.50;;;;;22.53;47.59;100556.78;5023396;28;45118;-59
2021/09/14 04:38:55;;;;;;;;;10.00;10.00;;;;;22.53;47.84;100548.75;5023155;28;45245;-58
2021/09/14 04:41:21;;;;;;;;;11.50;11.50;;;;;22.52;47.86;100539.00;5023228;28;45195;-58
2021/09/14 04:43:46;;;;;;;;;9.50;9.50;;;;;22.51;47.60;100546.16;5023142;28;45155;-58
2021/09/14 04:46:11;;;;;;;;;8.00;8.00;;;;;22.50;47.86;100533.75;5013725;28;45250;-58
2021/09/14 04:48:37;;;;;;;;;13.00;12.25;;;;;22.50;47.59;100527.50;5003264;28;46016;-57
2021/09/14 04:51:03;;;;;;;;;9.00;9.00;;;;;22.50;47.74;100519.47;5003158;28;45170;-58
2021/09/14 04:53:28;;;;;;;;;11.50;10.75;;;;;22.50;47.65;100524.84;5003238;28;45203;-58
2021/09/14 04:55:54;;;;;;;;;12.00;12.00;;;;;22.48;47.97;100530.31;5007888;28;45903;-58
2021/09/14 04:58:19;;;;;;;;;10.50;10.50;;;;;22.47;48.26;100536.63;5018113;28;45431;-58
2021/09/14 05:00:44;;;;;;;;;14.75;13.25;;;;;22.46;48.25;100542.06;5022845;28;45271;-57
2021/09/14 05:03:11;;;;;;;;;11.50;10.50;;;;;22.44;48.34;100522.56;5021694;28;45334;-58
2021/09/14 05:05:37;;;;;;;;;12.00;12.00;;;;;22.44;48.01;100533.28;5022897;28;45509;-58
2021/09/14 05:08:02;;;;;;;;;12.75;12.00;;;;;22.40;48.25;100522.78;5022442;28;45365;-58
2021/09/14 05:10:28;;;;;;;;;12.00;12.00;;;;;22.38;48.56;100535.41;5012533;28;45304;-58
2021/09/14 05:12:53;;;;;;;;;12.50;12.00;;;;;22.38;48.54;100532.72;5003956;28;45314;-58
2021/09/14 05:15:19;;;;;;;;;14.50;11.25;;;;;22.35;48.65;100538.28;5022652;28;45397;-58
2021/09/14 05:17:44;;;;;;;;;13.50;12.75;;;;;22.31;48.23;100535.91;5021173;28;48108;-57
2021/09/14 05:20:11;;;;;;;;;13.50;12.75;;;;;22.29;48.73;100532.47;5022704;28;45269;-58
2021/09/14 05:22:37;;;;;;;;;17.25;16.00;;;;;22.25;48.54;100537.19;5022613;28;45178;-58
2021/09/14 05:25:04;;;;;;;;;13.25;12.25;;;;;22.21;48.74;100535.66;5022699;28;45231;-58
2021/09/14 05:27:29;;;;;;;;;14.75;14.50;;;;;22.17;48.71;100550.19;5022326;28;47220;-58
2021/09/14 05:29:55;;;;;;;;;12.50;11.25;;;;;22.14;48.77;100577.16;5022018;28;45403;-59
2021/09/14 05:32:20;;;;;;;;;22.50;19.75;;;;;22.10;48.84;100578.31;5022523;28;45320;-57
2021/09/14 05:34:47;;;;;;;;;22.00;18.50;;;;;22.05;49.08;100590.19;5017439;28;45471;-58
2021/09/14 05:37:13;;;;;;;;;18.50;18.25;;;;;22.00;49.34;100586.06;5020597;28;47528;-58
2021/09/14 05:39:38;;;;;;;;;22.75;20.75;;;;;21.96;48.93;100590.78;5022372;28;45412;-58
2021/09/14 05:42:04;;;;;;;;;26.00;25.50;;;;;21.91;49.47;100617.81;5022141;28;45541;-59
2021/09/14 05:44:30;;;;;;;;;21.00;20.00;;;;;21.87;49.07;100610.97;5020918;28;45623;-58
2021/09/14 05:46:55;;;;;;;;;15.25;14.75;;;;;21.84;49.45;100612.97;5019259;28;45978;-58
2021/09/14 05:49:20;;;;;;;;;9.50;8.00;;;;;21.79;49.54;100631.97;5007173;28;45269;-58
2021/09/14 05:51:46;;;;;;;;;12.00;11.50;;;;;21.77;49.53;100633.03;5018129;28;45174;-58
2021/09/14 05:54:11;;;;;;;;;11.00;9.00;;;;;21.73;49.64;100646.56;5022211;28;45314;-58
2021/09/14 05:56:37;;;;;;;;;11.50;10.00;;;;;21.68;49.88;100653.19;5020342;28;48511;-58
2021/09/14 05:59:02;;;;;;;;;9.25;9.00;;;;;21.66;49.94;100661.31;5021859;28;45234;-58
2021/09/14 06:01:28;;;;;;;;;9.00;8.75;;;;;21.65;49.63;100662.25;5022134;28;45717;-58
2021/09/14 06:03:54;;;;;;;;;12.50;9.50;;;;;21.61;49.82;100658.06;5022045;28;45598;-58
2021/09/14 06:06:20;;;;;;;;;8.75;8.75;;;;;21.58;50.22;100652.88;5021696;28;47027;-57
2021/09/14 06:08:46;;;;;;;;;8.50;8.50;;;;;21.56;50.23;100658.34;5021813;28;45552;-58
2021/09/14 06:11:11;;;;;;;;;11.50;10.00;;;;;21.54;50.25;100670.88;5022001;28;45464;-59
2021/09/14 06:13:36;;;;;;;;;11.50;11.50;;;;;21.52;50.52;100669.25;5020413;28;45645;-59
2021/09/14 06:16:03;;;;;;;;;10.50;10.50;;;;;21.48;50.26;100684.63;5021519;28;46768;-59
2021/09/14 06:18:28;;;;;;;;;8.75;8.75;;;;;21.49;50.44;100688.19;5021751;28;45337;-59
2021/09/14 06:20:54;;;;;;;;;11.25;10.25;;;;;21.47;49.99;100687.41;5021610;28;45976;-59
2021/09/14 06:23:20;;;;;;;;;10.50;10.50;;;;;21.46;50.55;100704.38;5021689;28;45237;-59
2021/09/14 06:25:45;;;;;;;;;8.50;8.50;;;;;21.46;50.92;100712.41;5021328;28;45605;-59
2021/09/14 06:28:11;;;;;;;;;11.00;9.00;;;;;21.42;50.51;100704.59;5021708;28;45247;-59
2021/09/14 06:30:36;;;;;;;;;13.25;12.75;;;;;21.42;50.43;100709.06;5021330;28;45522;-59
2021/09/14 06:33:01;;;;;;;;;30.50;29.00;;;;;21.43;50.70;100703.63;5021495;28;45542;-60
2021/09/14 06:35:27;;;;;;;;;15.75;14.50;;;;;21.44;50.52;100709.84;5016396;28;45238;-60
2021/09/14 06:37:52;;;;;;;;;28.25;25.00;;;;;21.43;50.92;100698.28;5021404;28;45205;-56
2021/09/14 06:40:18;;;;;;;;;17.00;15.00;;;;;21.43;50.73;100700.97;5021582;28;45246;-55
2021/09/14 06:42:43;;;;;;;;;21.25;20.00;;;;;21.45;51.36;100708.03;5021333;28;45206;-57
2021/09/14 06:45:10;;;;;;;;;16.75;15.50;;;;;21.45;51.46;100700.88;5020321;28;45400;-60
2021/09/14 06:47:36;;;;;;;;;18.25;17.00;;;;;21.47;51.02;100698.09;5001524;28;45368;-59
2021/09/14 06:50:01;;;;;;;;;16.50;15.00;;;;;21.47;51.08;100707.00;5001294;28;45502;-59
2021/09/14 06:52:27;;;;;;;;;18.00;17.75;;;;;21.47;51.63;100708.78;5007452;28;45507;-59
2021/09/14 06:54:52;;;;;;;;;14.00;14.00;;;;;21.47;51.09;100707.00;5016351;28;48045;-59
2021/09/14 06:57:19;;;;;;;;;13.25;13.00;;;;;21.46;51.36;100710.63;5000563;28;45601;-59
2021/09/14 06:59:45;;;;;;;;;12.00;12.00;;;;;21.48;51.53;100723.88;5001040;28;45248;-59
2021/09/14 07:02:10;;;;;;;;;13.75;11.50;;;;;21.47;51.38;100736.41;5001345;28;45282;-58
2021/09/14 07:04:35;;;;;;;;;14.50;12.75;;;;;21.46;51.92;100734.66;5011756;28;48286;-58
2021/09/14 07:07:01;;;;;;;;;11.00;10.75;;;;;21.46;51.95;100731.13;5021277;28;45257;-58
2021/09/14 07:09:26;;;;;;;;;10.75;10.75;;;;;21.44;51.97;100731.22;5021057;28;45290;-59
2021/09/14 07:11:51;;;;;;;;;11.75;11.00;;;;;21.45;51.51;100718.72;5020739;28;45605;-59
2021/09/14 07:14:17;;;;;;;;;11.50;10.50;;;;;21.43;52.14;100709.00;5019243;28;45324;-59
2021/09/14 07:16:42;;;;;;;;;10.75;8.50;;;;;21.42;52.31;100691.22;5020645;28;45419;-59
2021/09/14 07:19:07;;;;;;;;;9.00;9.00;;;;;21.42;52.36;100677.84;5020830;28;45710;-59
2021/09/14 07:21:33;;;;;;;;;10.75;10.75;;;;;21.43;51.84;100682.25;5020679;28;45218;-59
2021/09/14 07:23:58;;;;;;;;;12.25;11.50;;;;;21.43;51.97;100660.88;5020734;28;45333;-59
2021/09/14 07:26:24;;;;;;;;;13.25;12.50;;;;;21.45;52.18;100658.09;5020739;28;45421;-59
2021/09/14 07:28:49;;;;;;;;;14.75;14.25;;;;;21.45;52.23;100660.78;5020390;28;45547;-59
2021/09/14 07:31:15;;;;;;;;;16.75;15.00;;;;;21.46;52.37;100653.59;5020688;28;45254;-59
2021/09/14 07:33:41;;;;;;;;;13.75;12.75;;;;;21.48;52.02;100662.41;5015299;28;46223;-59
2021/09/14 07:36:09;;;;;;;;;13.75;12.50;;;;;21.49;52.40;100667.66;5000690;28;45337;-59
2021/09/14 07:38:36;;;;;;;;;14.50;14.00;;;;;21.51;52.58;100665.75;5000782;28;45569;-60
2021/09/14 07:41:03;;;;;;;;;12.25;10.75;;;;;21.53;52.16;100649.59;5000557;28;45455;-60
2021/09/14 07:43:29;;;;;;;;;14.25;13.25;;;;;21.54;52.12;100630.78;5000336;28;45292;-60
2021/09/14 07:45:54;;;;;;;;;15.00;14.00;;;;;21.56;52.69;100636.09;5007688;28;45450;-60
2021/09/14 07:48:20;;;;;;;;;16.25;15.25;;;;;21.58;52.17;100640.41;5006270;28;45312;-60
2021/09/14 07:50:45;;;;;;;;;15.25;15.25;;;;;21.61;52.59;100636.66;5000605;28;45418;-60
2021/09/14 07:53:11;;;;;;;;;18.00;15.00;;;;;21.62;52.64;100651.72;5000323;28;46049;-60
2021/09/14 07:55:37;;;;;;;;;13.25;11.75;;;;;21.67;52.66;100662.16;5000594;28;45443;-60
2021/09/14 07:58:02;;;;;;;;;14.25;12.25;;;;;21.70;53.07;100667.31;5000187;28;45401;-60
2021/09/14 08:00:28;;;;;;;;;13.25;13.25;;;;;21.72;52.46;100666.28;5000004;28;45297;-60
2021/09/14 08:02:54;;;;;;;;;16.00;14.25;;;;;21.76;52.75;100672.28;5000234;28;46182;-59
2021/09/14 08:05:20;;;;;;;;;15.75;15.00;;;;;21.80;52.91;100673.81;5000411;28;45216;-60
2021/09/14 08:07:45;;;;;;;;;15.50;13.00;;;;;21.83;53.43;100675.44;4999322;28;45257;-59
2021/09/14 08:10:11;;;;;;;;;13.50;13.00;;;;;21.85;52.97;100679.72;5000325;28;45217;-59
2021/09/14 08:12:36;;;;;;;;;12.50;11.50;;;;;21.87;53.02;100676.94;4999997;28;46163;-59
2021/09/14 08:15:02;;;;;;;;;11.25;10.75;;;;;21.89;53.25;100689.28;5000126;28;45420;-59
2021/09/14 08:17:27;;;;;;;;;15.50;12.00;;;;;21.91;53.75;100689.16;5010056;28;45377;-59
2021/09/14 08:19:52;;;;;;;;;12.50;12.50;;;;;21.92;53.69;100696.25;5020189;28;45194;-59
2021/09/14 08:22:19;;;;;;;;;4.75;4.50;;;;;21.95;53.94;100703.22;5019840;28;46076;-59
2021/09/14 08:24:44;;;;;;;;;17.00;13.75;;;;;21.93;54.14;100700.63;5020066;28;45579;-59
2021/09/14 08:27:10;;;;;;;;;15.25;14.75;;;;;21.93;53.70;100700.63;5019684;28;45880;-60
2021/09/14 08:29:35;;;;;;;;;15.50;13.50;;;;;21.94;54.09;100690.78;5019654;28;45435;-59
2021/09/14 08:32:01;;;;;;;;;12.00;11.00;;;;;21.95;54.08;100689.84;5019492;28;46419;-59
2021/09/14 08:34:26;;;;;;;;;12.75;11.75;;;;;21.97;54.31;100691.47;5014718;28;45252;-59
2021/09/14 08:36:51;;;;;;;;;20.00;15.50;;;;;22.00;53.99;100685.94;5019809;28;45542;-60
2021/09/14 08:39:17;;;;;;;;;16.25;15.00;;;;;22.03;54.22;100687.56;5019652;28;45261;-60
2021/09/14 08:41:45;;;;;;;;;13.75;12.50;;;;;22.03;53.96;100699.09;5019575;28;45352;-60
2021/09/14 08:44:11;;;;;;;;;17.25;15.75;;;;;22.05;54.36;100705.22;5019433;28;45254;-60
2021/09/14 08:46:37;;;;;;;;;13.50;13.50;;;;;22.07;54.02;100708.69;5019690;28;45423;-59
2021/09/14 08:49:02;;;;;;;;;19.25;15.50;;;;;22.11;54.62;100714.66;4999640;28;45528;-60
2021/09/14 08:51:28;;;;;;;;;15.75;15.75;;;;;22.14;54.00;100708.25;4999657;28;45180;-60
2021/09/14 08:53:54;;;;;;;;;13.50;13.50;;;;;22.16;54.22;100706.34;4998532;28;45257;-60
2021/09/14 08:56:19;;;;;;;;;14.75;14.25;;;;;22.20;54.72;100718.56;4999724;28;45207;-60
2021/09/14 08:58:55;;;;;;;;;14.50;14.50;;;;;22.23;54.68;100729.94;5017887;28;45854;-60
2021/09/14 09:01:21;;;;;;;;;13.75;12.00;;;;;22.28;54.79;100740.38;5005058;28;47090;-59
2021/09/14 09:03:55;;;;;;;;;13.75;13.50;;;;;22.29;54.79;100741.22;4999605;28;45333;-59
2021/09/14 09:06:36;;;;;;;;;17.50;14.00;;;;;22.32;55.24;100736.53;4998322;28;45334;-59
2021/09/14 09:09:16;;;;;;;;;12.00;11.50;;;;;22.35;55.03;100722.09;4999557;28;45484;-60
2021/09/14 09:11:55;;;;;;;;;11.50;11.50;;;;;22.37;55.04;100731.78;4999326;28;45249;-59
2021/09/14 09:14:31;;;;;;;;;13.50;12.50;;;;;22.37;54.86;100739.81;4999162;28;45239;-60
2021/09/14 09:17:12;;;;;;;;;12.75;11.50;;;;;22.43;54.97;100743.03;5004351;28;45349;-60
2021/09/14 09:19:38;;;;;;;;;11.50;10.25;;;;;22.45;55.41;100742.00;5019068;28;45262;-60
2021/09/14 09:22:04;;;;;;;;;14.25;13.00;;;;;22.47;54.92;100732.03;5022466;28;46198;-60
2021/09/14 09:24:41;;;;;;;;;12.50;10.50;;;;;22.51;55.08;100732.72;5022424;28;45415;-60
2021/09/14 09:27:14;;;;;;;;;15.25;12.25;;;;;22.53;55.31;100737.00;5022477;28;45418;-60
2021/09/14 09:29:39;;;;;;;;;11.25;11.25;;;;;22.56;55.04;100731.47;5022319;28;45268;-60
2021/09/14 09:32:05;;;;;;;;;8.75;7.00;;;;;22.59;55.22;100732.22;5022273;28;46079;-59
2021/09/14 09:34:31;;;;;;;;;12.75;11.25;;;;;22.62;55.21;100743.59;5017484;28;45471;-60
2021/09/14 09:37:06;;;;;;;;;13.00;13.00;;;;;22.66;55.09;100744.25;5022502;28;45256;-60
2021/09/14 09:39:45;;;;;;;;;13.75;13.75;;;;;22.69;54.97;100744.03;5022441;28;45218;-60
2021/09/14 09:42:12;;;;;;;;;10.75;10.75;;;;;22.70;55.22;100725.22;5020654;28;46099;-60
2021/09/14 09:44:38;;;;;;;;;13.25;12.25;;;;;22.72;55.11;100730.47;5022078;28;45392;-60
2021/09/14 09:47:04;;;;;;;;;11.75;10.00;;;;;22.78;54.77;100731.88;5005702;28;45325;-60
2021/09/14 09:49:29;;;;;;;;;14.25;12.50;;;;;22.81;55.14;100726.31;5010905;28;45343;-60
2021/09/14 09:51:57;;;;;;;;;20.50;18.00;;;;;22.83;55.37;100714.53;5005525;28;45241;-60
2021/09/14 09:54:23;;;;;;;;;22.75;22.00;;;;;22.87;55.31;100707.16;5002381;28;45452;-60
2021/09/14 09:56:49;;;;;;;;;23.75;20.75;;;;;22.93;55.13;100711.25;5000536;28;45296;-59
2021/09/14 09:59:15;;;;;;;;;23.75;21.50;;;;;22.97;55.12;100704.75;5001995;28;45482;-60
2021/09/14 10:02:04;;;;;;;;;16.00;15.50;;;;;23.01;55.24;100704.41;5002006;28;46155;-60
2021/09/14 10:04:43;;;;;;;;;16.00;13.25;;;;;23.09;55.12;100697.69;5002048;28;45238;-60
2021/09/14 10:07:10;;;;;;;;;13.25;13.25;;;;;23.13;55.01;100696.50;5002339;28;45282;-61
2021/09/14 10:09:47;;;;;;;;;13.50;13.00;;;;;23.20;55.07;100709.41;5001908;28;45361;-61
2021/09/14 10:12:21;;;;;;;;;17.50;14.75;;;;;23.28;55.31;100708.91;5011052;28;46411;-62
2021/09/14 10:14:59;;;;;;;;;15.25;13.00;;;;;23.36;55.28;100716.44;5003320;28;45361;-61
2021/09/14 10:17:26;;;;;;;;;13.75;11.75;;;;;23.43;55.29;100703.44;5002074;28;45392;-60
2021/09/14 10:19:51;;;;;;;;;11.75;11.00;;;;;23.49;55.54;100703.03;5008303;28;45488;-60
2021/09/14 10:22:24;;;;;;;;;11.25;11.25;;;;;23.57;55.14;100702.47;5021688;28;46048;-61
2021/09/14 10:24:51;;;;;;;;;11.25;10.50;;;;;23.65;55.17;100706.34;5021730;28;45333;-61
2021/09/14 10:27:17;;;;;;;;;12.00;11.25;;;;;23.72;54.99;100717.50;5021560;28;45182;-59
2021/09/14 10:29:43;;;;;;;;;14.75;13.25;;;;;23.77;55.20;100710.00;5021403;28;45694;-59
2021/09/14 10:32:10;;;;;;;;;16.50;13.50;;;;;23.86;54.81;100705.78;5020755;28;45456;-59
2021/09/14 10:34:42;;;;;;;;;14.25;12.75;;;;;23.94;55.06;100713.34;5020151;28;45397;-59
2021/09/14 10:37:10;;;;;;;;;12.50;12.50;;;;;24.02;55.20;100717.22;5021354;28;45233;-58
2021/09/14 10:39:38;;;;;;;;;6.75;5.00;;;;;24.11;55.31;100712.13;5021561;28;45447;-60
2021/09/14 10:42:21;;;;;;;;;12.50;12.25;;;;;24.20;55.17;100719.53;5021092;28;46242;-61
2021/09/14 10:44:51;;;;;;;;;18.50;16.00;;;;;24.30;54.93;100719.72;5021148;28;45356;-61
2021/09/14 10:47:19;;;;;;;;;16.50;13.50;;;;;24.38;55.17;100722.72;5002707;28;45404;-60
2021/09/14 10:50:00;;;;;;;;;15.25;14.00;;;;;24.49;54.98;100717.41;4983897;28;45796;-59
2021/09/14 10:52:30;;;;;;;;;14.50;13.50;;;;;24.58;54.92;100718.56;5008798;28;45344;-59
2021/09/14 10:54:56;;;;;;;;;15.00;13.25;;;;;24.69;54.84;100714.25;5019746;28;45327;-59
2021/09/14 10:57:33;;;;;;;;;13.00;13.00;;;;;24.78;54.84;100718.94;5021067;28;45546;-59
2021/09/14 10:59:58;;;;;;;;;14.75;13.25;;;;;24.88;54.64;100708.34;5020649;28;45483;-60
2021/09/14 11:02:25;;;;;;;;;15.00;14.75;;;;;25.02;54.35;100712.69;5020873;28;45341;-60
2021/09/14 11:04:50;;;;;;;;;14.00;12.50;;;;;25.11;54.45;100706.63;5020428;28;45379;-60
2021/09/14 11:07:17;;;;;;;;;11.25;11.00;;;;;25.25;54.27;100694.81;5020633;28;45460;-60
2021/09/14 11:09:44;;;;;;;;;12.00;11.50;;;;;25.41;54.18;100692.69;5020497;28;45629;-60
2021/09/14 11:12:24;;;;;;;;;12.00;12.00;;;;;25.59;54.20;100689.53;5020271;28;46236;-60
2021/09/14 11:14:51;;;;;;;;;12.00;12.00;;;;;25.77;54.89;100688.06;5020052;28;45587;-60
2021/09/14 11:17:27;;;;;;;;;9.25;9.00;;;;;26.01;54.13;100686.22;5020532;28;45234;-61
2021/09/14 11:19:53;;;;;;;;;13.50;11.75;;;;;26.26;53.77;100694.06;5020369;28;45505;-62
2021/09/14 11:22:33;;;;;;;;;12.25;11.25;;;;;26.53;54.44;100692.78;5019232;28;45998;-61
2021/09/14 11:24:59;;;;;;;;;12.50;12.50;;;;;26.76;53.82;100684.66;5000811;28;45334;-59
2021/09/14 11:27:25;;;;;;;;;11.00;10.00;;;;;27.04;53.56;100693.09;5000665;28;45254;-60
2021/09/14 11:29:50;;;;;;;;;12.00;12.00;;;;;27.32;54.12;100701.53;5000530;28;45251;-60
2021/09/14 11:32:16;;;;;;;;;11.00;9.25;;;;;27.59;53.78;100702.88;5000674;28;45408;-60
2021/09/14 11:34:42;;;;;;;;;12.75;11.25;;;;;27.84;53.33;100690.78;5009031;28;45291;-60
2021/09/14 11:37:07;;;;;;;;;10.25;9.00;;;;;28.07;52.88;100690.63;5020235;28;45523;-60
2021/09/14 11:39:37;;;;;;;;;11.75;9.50;;;;;28.31;52.69;100701.91;5020856;28;45286;-60
2021/09/14 11:42:03;;;;;;;;;10.25;10.25;;;;;28.51;52.44;100691.97;5019956;28;46177;-60
2021/09/14 11:44:28;;;;;;;;;11.00;9.00;;;;;28.76;52.26;100694.34;5020275;28;45683;-61
2021/09/14 11:46:54;;;;;;;;;10.75;10.75;;;;;29.00;51.90;100694.75;5005296;28;45320;-61
2021/09/14 11:49:27;;;;;;;;;12.50;11.50;;;;;29.25;51.80;100697.00;5000537;28;45226;-61
2021/09/14 11:52:00;;;;;;;;;11.25;9.00;;;;;29.50;51.58;100691.00;5000214;28;46326;-61
2021/09/14 11:54:33;;;;;;;;;9.25;8.00;;;;;29.80;51.48;100688.22;5000086;28;45325;-61
2021/09/14 11:56:58;;;;;;;;;11.75;10.50;;;;;30.05;51.33;100686.69;4999946;28;45306;-61
2021/09/14 11:59:36;;;;;;;;;14.00;11.25;;;;;30.32;50.92;100690.38;4999907;28;45446;-60
2021/09/14 12:02:03;;;;;;;;;9.50;8.00;;;;;30.54;50.30;100685.56;5000070;28;46381;-61
2021/09/14 12:04:28;;;;;;;;;8.50;8.50;;;;;30.72;50.47;100685.59;5000173;28;45357;-61